Time;durP1;ratioP1;P1;durP2;ratioP2;P2;SDS_P1;SDS_P2;PMS_P1;PMS_P2;Temp;Humidity;BMP_temperature;BMP_pressure;BME280_temperature;BME280_humidity;BME280_pressure;Samples;Min_cycle;Max_cycle;Signal;HPM_P1;HPM_P2
2023/03/02 00:02:10;;;;;;;46.28;26.58;;;;;;;;;;5009167;28;20033;-82
2023/03/02 00:04:39;;;;;;;49.55;27.23;;;;;;;;;;5001312;28;20462;-80
2023/03/02 00:07:07;;;;;;;47.13;27.30;;;;;;;;;;5015919;28;20026;-81
2023/03/02 00:09:34;;;;;;;46.08;26.90;;;;;;;;;;5014707;28;20030;-82
2023/03/02 00:12:00;;;;;;;45.70;26.48;;;;;;;;;;5011384;28;20028;-82
2023/03/02 00:14:26;;;;;;;51.20;28.45;;;;;;;;;;5000812;28;20034;-82
2023/03/02 00:16:52;;;;;;;46.30;25.63;;;;;;;;;;5011568;28;20037;-83
2023/03/02 00:19:18;;;;;;;47.42;26.52;;;;;;;;;;5015169;28;20535;-81
2023/03/02 00:21:44;;;;;;;44.22;26.52;;;;;;;;;;5010419;28;20021;-82
2023/03/02 00:24:10;;;;;;;49.80;26.48;;;;;;;;;;5000164;28;20030;-81
2023/03/02 00:26:36;;;;;;;49.13;28.42;;;;;;;;;;4997017;28;20137;-81
2023/03/02 00:29:03;;;;;;;47.38;25.38;;;;;;;;;;5003864;28;20038;-82
2023/03/02 00:31:29;;;;;;;43.30;26.48;;;;;;;;;;4997539;28;20030;-82
2023/03/02 00:33:55;;;;;;;42.78;26.30;;;;;;;;;;4997169;28;20091;-81
2023/03/02 00:36:22;;;;;;;45.83;25.92;;;;;;;;;;5000081;28;20117;-82
2023/03/02 00:38:48;;;;;;;49.45;27.08;;;;;;;;;;5014685;28;20480;-81
2023/03/02 00:41:14;;;;;;;43.53;24.83;;;;;;;;;;5004598;28;20019;-82
2023/03/02 00:43:40;;;;;;;41.67;23.40;;;;;;;;;;5002236;28;20110;-81
2023/03/02 00:46:19;;;;;;;47.33;25.92;;;;;;;;;;4999563;28;20478;-81
2023/03/02 00:48:46;;;;;;;42.28;24.83;;;;;;;;;;4994470;28;20084;-82
2023/03/02 00:51:12;;;;;;;43.47;25.50;;;;;;;;;;4995123;28;20023;-80
2023/03/02 00:53:38;;;;;;;47.53;25.33;;;;;;;;;;5012086;28;20021;-80
2023/03/02 00:56:06;;;;;;;40.10;23.45;;;;;;;;;;5007752;28;20056;-80
2023/03/02 00:58:32;;;;;;;41.00;24.83;;;;;;;;;;5015014;28;20512;-81
2023/03/02 01:00:58;;;;;;;45.13;23.65;;;;;;;;;;5013656;28;20036;-82
2023/03/02 01:03:25;;;;;;;44.58;24.45;;;;;;;;;;5012491;28;20041;-81
2023/03/02 01:05:55;;;;;;;41.97;23.48;;;;;;;;;;5001577;28;20029;-81
2023/03/02 01:08:21;;;;;;;44.50;24.13;;;;;;;;;;4995215;28;20015;-81
2023/03/02 01:10:48;;;;;;;40.92;22.70;;;;;;;;;;5007311;28;20026;-82
2023/03/02 01:13:14;;;;;;;44.40;24.33;;;;;;;;;;5012870;28;20022;-82
2023/03/02 01:15:40;;;;;;;42.83;23.10;;;;;;;;;;5006011;28;20026;-82
2023/03/02 01:18:06;;;;;;;40.42;22.83;;;;;;;;;;5012060;28;20037;-81
2023/03/02 01:20:32;;;;;;;41.72;23.67;;;;;;;;;;5000961;28;20030;-82
2023/03/02 01:22:58;;;;;;;40.67;23.25;;;;;;;;;;4994358;28;20485;-81
2023/03/02 01:25:24;;;;;;;42.00;24.27;;;;;;;;;;4999283;28;20072;-82
2023/03/02 01:27:50;;;;;;;44.15;23.80;;;;;;;;;;4993423;28;20080;-82
2023/03/02 01:30:16;;;;;;;40.58;22.88;;;;;;;;;;4993998;28;20192;-81
2023/03/02 01:32:42;;;;;;;38.33;21.85;;;;;;;;;;4995621;28;20026;-80
2023/03/02 01:35:08;;;;;;;42.30;25.50;;;;;;;;;;5004691;28;20026;-81
2023/03/02 01:37:34;;;;;;;42.80;23.88;;;;;;;;;;4996281;28;20061;-81
2023/03/02 01:40:04;;;;;;;41.28;23.67;;;;;;;;;;4994527;28;20027;-82
2023/03/02 01:42:34;;;;;;;41.47;23.63;;;;;;;;;;4995260;28;20026;-81
2023/03/02 01:45:00;;;;;;;42.20;24.27;;;;;;;;;;5007111;28;20049;-81
2023/03/02 01:47:29;;;;;;;38.80;23.38;;;;;;;;;;4998591;28;20113;-81
2023/03/02 01:49:58;;;;;;;38.05;22.83;;;;;;;;;;4994571;28;20027;-82
2023/03/02 01:52:25;;;;;;;38.10;21.75;;;;;;;;;;5011384;28;20037;-80
2023/03/02 01:54:52;;;;;;;40.30;22.00;;;;;;;;;;5000146;28;20030;-82
2023/03/02 01:57:21;;;;;;;45.80;24.02;;;;;;;;;;5008094;28;20087;-82
2023/03/02 01:59:49;;;;;;;41.38;22.55;;;;;;;;;;5014395;28;20068;-82
2023/03/02 02:02:16;;;;;;;39.13;21.85;;;;;;;;;;4998729;28;20062;-81
2023/03/02 02:04:43;;;;;;;39.03;22.65;;;;;;;;;;5004350;28;20041;-82
2023/03/02 02:07:09;;;;;;;39.47;22.30;;;;;;;;;;4998350;28;20042;-82
2023/03/02 02:12:39;;;;;;;40.33;22.63;;;;;;;;;;4999247;28;20080;-82
2023/03/02 02:15:05;;;;;;;35.28;20.63;;;;;;;;;;5003306;28;20033;-81
2023/03/02 02:17:32;;;;;;;39.20;21.25;;;;;;;;;;4995019;28;20034;-81
2023/03/02 02:23:39;;;;;;;36.83;22.00;;;;;;;;;;5014142;28;20125;-82
2023/03/02 02:26:17;;;;;;;37.38;21.10;;;;;;;;;;5008254;28;20151;-81
2023/03/02 02:29:01;;;;;;;45.25;22.52;;;;;;;;;;4998708;28;20023;-81
2023/03/02 02:31:43;;;;;;;35.38;20.58;;;;;;;;;;4998965;28;20022;-80
2023/03/02 02:34:22;;;;;;;40.00;20.63;;;;;;;;;;4992800;28;20562;-80
2023/03/02 02:36:50;;;;;;;40.58;20.67;;;;;;;;;;5001137;28;20573;-81
2023/03/02 02:39:28;;;;;;;43.05;21.75;;;;;;;;;;5011779;28;20026;-82
2023/03/02 02:41:55;;;;;;;37.55;20.35;;;;;;;;;;4996660;28;20031;-81
2023/03/02 02:44:21;;;;;;;37.58;20.92;;;;;;;;;;4994515;28;20386;-80
2023/03/02 02:46:47;;;;;;;39.67;22.23;;;;;;;;;;5003497;28;20432;-80
2023/03/02 02:49:32;;;;;;;35.70;20.10;;;;;;;;;;5008668;28;20041;-81
2023/03/02 02:51:58;;;;;;;36.28;21.58;;;;;;;;;;5013346;28;20478;-81
2023/03/02 02:54:25;;;;;;;39.58;21.38;;;;;;;;;;5014080;28;20065;-80
2023/03/02 02:56:52;;;;;;;34.70;20.08;;;;;;;;;;5018604;28;20064;-82
2023/03/02 02:59:21;;;;;;;39.90;21.10;;;;;;;;;;5013809;28;20049;-81
2023/03/02 03:01:48;;;;;;;41.22;21.73;;;;;;;;;;5014624;28;20029;-82
2023/03/02 03:04:17;;;;;;;39.28;22.33;;;;;;;;;;5008485;28;20040;-80
2023/03/02 03:12:51;;;;;;;39.63;20.88;;;;;;;;;;5010694;28;20117;-81
2023/03/02 03:15:17;;;;;;;39.22;21.42;;;;;;;;;;5012341;28;20026;-82
2023/03/02 03:18:01;;;;;;;39.25;19.42;;;;;;;;;;5004228;28;20397;-82
2023/03/02 03:20:27;;;;;;;39.83;20.15;;;;;;;;;;5004453;28;20022;-81
2023/03/02 03:22:54;;;;;;;42.15;20.17;;;;;;;;;;5014283;28;20037;-81
2023/03/02 03:25:21;;;;;;;36.45;19.50;;;;;;;;;;5007846;28;20027;-81
2023/03/02 03:27:47;;;;;;;42.15;22.17;;;;;;;;;;5001787;28;20185;-82
2023/03/02 03:30:14;;;;;;;39.30;21.45;;;;;;;;;;4997231;28;20048;-82
2023/03/02 03:32:40;;;;;;;39.40;20.20;;;;;;;;;;4997481;28;20031;-81
2023/03/02 03:35:11;;;;;;;34.45;21.40;;;;;;;;;;5013586;28;20030;-81
2023/03/02 03:37:38;;;;;;;35.38;19.33;;;;;;;;;;5007266;28;20496;-79
2023/03/02 03:40:05;;;;;;;34.35;19.38;;;;;;;;;;5002017;28;20517;-80
2023/03/02 03:42:31;;;;;;;37.60;19.50;;;;;;;;;;5004047;28;20027;-79
2023/03/02 03:44:57;;;;;;;38.38;21.23;;;;;;;;;;5013464;28;20050;-79
2023/03/02 03:47:23;;;;;;;33.45;19.00;;;;;;;;;;5006334;28;20192;-81
2023/03/02 03:49:49;;;;;;;41.92;21.25;;;;;;;;;;5006300;28;20754;-82
2023/03/02 03:52:15;;;;;;;35.85;21.30;;;;;;;;;;5015935;28;20109;-82
2023/03/02 03:54:41;;;;;;;40.72;20.50;;;;;;;;;;5011094;28;20046;-80
2023/03/02 03:57:09;;;;;;;37.75;20.42;;;;;;;;;;4995601;28;20033;-81
2023/03/02 03:59:35;;;;;;;39.97;21.23;;;;;;;;;;4998709;28;20506;-81
2023/03/02 04:02:02;;;;;;;39.92;21.23;;;;;;;;;;4995587;28;20090;-82
2023/03/02 04:04:32;;;;;;;45.42;20.95;;;;;;;;;;5008034;28;20036;-81
2023/03/02 04:06:58;;;;;;;40.25;21.98;;;;;;;;;;4999018;28;20060;-82
2023/03/02 04:09:25;;;;;;;37.47;21.02;;;;;;;;;;5014841;28;20030;-82
2023/03/02 04:11:53;;;;;;;39.15;21.05;;;;;;;;;;5015035;28;20100;-82
2023/03/02 04:14:20;;;;;;;37.78;20.60;;;;;;;;;;5002923;28;20018;-79
2023/03/02 04:16:46;;;;;;;40.38;21.00;;;;;;;;;;5004253;28;20130;-80
2023/03/02 04:19:12;;;;;;;40.25;20.50;;;;;;;;;;5003812;28;20042;-80
2023/03/02 04:21:40;;;;;;;43.90;20.95;;;;;;;;;;5003281;28;20173;-80
2023/03/02 04:30:13;;;;;;;37.25;21.25;;;;;;;;;;4996624;28;20471;-82
2023/03/02 04:32:39;;;;;;;38.22;20.98;;;;;;;;;;4996113;28;20022;-82
2023/03/02 04:35:06;;;;;;;42.72;22.73;;;;;;;;;;5002188;28;20027;-81
2023/03/02 04:37:32;;;;;;;38.10;21.65;;;;;;;;;;4999445;28;20022;-82
2023/03/02 04:39:58;;;;;;;37.97;21.67;;;;;;;;;;4998429;28;20058;-81
2023/03/02 04:42:24;;;;;;;47.70;23.48;;;;;;;;;;5003468;28;20390;-82
2023/03/02 04:44:50;;;;;;;44.95;23.48;;;;;;;;;;5003153;28;20038;-82
2023/03/02 04:47:16;;;;;;;46.38;22.90;;;;;;;;;;5008591;28;20046;-81
2023/03/02 04:49:42;;;;;;;40.88;22.58;;;;;;;;;;5016863;28;20521;-82
2023/03/02 04:52:08;;;;;;;42.08;21.70;;;;;;;;;;5017074;28;20045;-81
2023/03/02 04:54:34;;;;;;;50.40;24.35;;;;;;;;;;5009159;28;20462;-81
2023/03/02 04:57:00;;;;;;;43.88;24.05;;;;;;;;;;5003678;28;20037;-82
2023/03/02 04:59:27;;;;;;;41.10;23.35;;;;;;;;;;5014408;28;20030;-81
2023/03/02 05:01:54;;;;;;;40.15;20.35;;;;;;;;;;4995721;28;20548;-80
2023/03/02 05:04:20;;;;;;;38.92;20.25;;;;;;;;;;5000286;28;20022;-81
2023/03/02 05:06:46;;;;;;;44.17;23.23;;;;;;;;;;5009867;28;20033;-81
2023/03/02 05:09:17;;;;;;;43.33;24.50;;;;;;;;;;5013853;28;20120;-81
2023/03/02 05:11:44;;;;;;;45.47;23.05;;;;;;;;;;5011666;28;20507;-81
2023/03/02 05:14:11;;;;;;;46.17;24.38;;;;;;;;;;4999370;28;20037;-82
2023/03/02 05:16:38;;;;;;;41.40;23.10;;;;;;;;;;4998273;28;20034;-82
2023/03/02 05:19:05;;;;;;;49.33;23.35;;;;;;;;;;5002375;28;20026;-82
2023/03/02 05:21:31;;;;;;;39.75;23.33;;;;;;;;;;4993999;28;20049;-82
2023/03/02 05:23:57;;;;;;;44.53;22.65;;;;;;;;;;5005361;28;20028;-82
2023/03/02 05:26:23;;;;;;;42.22;22.20;;;;;;;;;;4993592;28;20018;-81
2023/03/02 05:28:49;;;;;;;42.17;22.75;;;;;;;;;;4995244;28;20030;-80
2023/03/02 05:31:23;;;;;;;47.25;22.92;;;;;;;;;;4998632;28;20033;-81
2023/03/02 05:33:49;;;;;;;41.33;22.83;;;;;;;;;;5001892;28;20072;-80
2023/03/02 05:36:15;;;;;;;39.00;22.30;;;;;;;;;;5001565;28;20432;-82
2023/03/02 05:38:41;;;;;;;45.88;23.95;;;;;;;;;;5013442;28;20120;-82
2023/03/02 05:41:07;;;;;;;46.80;23.38;;;;;;;;;;5012121;28;20512;-83
2023/03/02 05:43:34;;;;;;;45.30;23.55;;;;;;;;;;5000141;28;20135;-81
2023/03/02 05:46:01;;;;;;;38.40;21.80;;;;;;;;;;5009696;28;20029;-81
2023/03/02 05:48:28;;;;;;;47.63;23.05;;;;;;;;;;5011466;28;20037;-80
2023/03/02 05:50:54;;;;;;;43.50;23.63;;;;;;;;;;5012594;28;20022;-81
2023/03/02 05:53:20;;;;;;;41.72;23.77;;;;;;;;;;4997397;28;20081;-81
2023/03/02 05:55:46;;;;;;;48.42;22.95;;;;;;;;;;5002185;28;20121;-82
2023/03/02 05:58:13;;;;;;;46.78;21.95;;;;;;;;;;4999537;28;20121;-82
2023/03/02 06:00:39;;;;;;;39.67;22.08;;;;;;;;;;5011745;28;20033;-81
2023/03/02 06:03:05;;;;;;;45.53;23.95;;;;;;;;;;5007965;28;20038;-81
2023/03/02 06:05:31;;;;;;;48.78;24.02;;;;;;;;;;5001400;28;20030;-83
2023/03/02 06:07:57;;;;;;;47.08;23.73;;;;;;;;;;4998271;28;20561;-82
2023/03/02 06:10:23;;;;;;;47.90;23.73;;;;;;;;;;5006828;28;20022;-82
2023/03/02 06:12:50;;;;;;;46.42;24.48;;;;;;;;;;4999537;28;20073;-81
2023/03/02 06:15:16;;;;;;;45.47;24.25;;;;;;;;;;5011752;28;20022;-80
2023/03/02 06:17:42;;;;;;;46.92;23.38;;;;;;;;;;4996225;28;20358;-81
2023/03/02 06:20:09;;;;;;;46.92;25.00;;;;;;;;;;5001259;28;20067;-81
2023/03/02 06:22:46;;;;;;;41.10;23.08;;;;;;;;;;5011991;28;20018;-80
2023/03/02 06:25:14;;;;;;;43.65;22.90;;;;;;;;;;5000036;28;20022;-82
2023/03/02 06:27:40;;;;;;;50.30;23.92;;;;;;;;;;5011918;28;20394;-82
2023/03/02 06:30:07;;;;;;;50.35;26.40;;;;;;;;;;5016440;28;20045;-81
2023/03/02 06:32:34;;;;;;;45.53;24.50;;;;;;;;;;5016613;28;20045;-81
2023/03/02 06:35:01;;;;;;;54.22;26.77;;;;;;;;;;5017327;28;20030;-84
2023/03/02 06:37:28;;;;;;;51.30;26.13;;;;;;;;;;5012241;28;20040;-81
2023/03/02 06:39:54;;;;;;;43.60;25.00;;;;;;;;;;4998702;28;20598;-82
2023/03/02 06:42:21;;;;;;;45.22;24.52;;;;;;;;;;5012452;28;20030;-80
2023/03/02 06:44:47;;;;;;;51.03;25.70;;;;;;;;;;5005524;28;20033;-81
2023/03/02 06:53:22;;;;;;;44.70;23.50;;;;;;;;;;5009389;28;20091;-81
2023/03/02 06:55:48;;;;;;;47.83;25.88;;;;;;;;;;5017450;28;20022;-81
2023/03/02 06:58:14;;;;;;;48.10;24.92;;;;;;;;;;5002752;28;20037;-80
2023/03/02 07:00:40;;;;;;;43.85;24.70;;;;;;;;;;4997391;28;20038;-80
2023/03/02 07:03:06;;;;;;;42.60;22.75;;;;;;;;;;4998339;28;20342;-81
2023/03/02 07:05:32;;;;;;;43.88;23.73;;;;;;;;;;5019528;28;20033;-81
2023/03/02 07:07:58;;;;;;;42.50;23.05;;;;;;;;;;5005996;28;20034;-81
2023/03/02 07:10:24;;;;;;;44.20;22.50;;;;;;;;;;5015006;28;20080;-80
2023/03/02 07:12:51;;;;;;;35.47;21.42;;;;;;;;;;5013905;28;20029;-80
2023/03/02 07:15:17;;;;;;;40.80;22.08;;;;;;;;;;5015269;28;20033;-80
2023/03/02 07:17:44;;;;;;;40.42;22.88;;;;;;;;;;5019783;28;20129;-79
2023/03/02 07:20:11;;;;;;;45.17;22.67;;;;;;;;;;5026443;28;20030;-80
2023/03/02 07:22:37;;;;;;;41.65;21.40;;;;;;;;;;5009732;28;20406;-81
2023/03/02 07:25:03;;;;;;;39.65;22.25;;;;;;;;;;5003128;28;20022;-80
2023/03/02 07:27:29;;;;;;;42.67;23.92;;;;;;;;;;5015884;28;20080;-83
2023/03/02 07:29:55;;;;;;;41.10;24.02;;;;;;;;;;5016736;28;20026;-81
2023/03/02 07:32:21;;;;;;;46.58;23.23;;;;;;;;;;5011417;28;20034;-80
2023/03/02 07:34:47;;;;;;;43.10;23.70;;;;;;;;;;5009000;28;20083;-81
2023/03/02 07:37:13;;;;;;;41.28;23.65;;;;;;;;;;5013745;28;20077;-81
2023/03/02 07:39:39;;;;;;;38.85;23.23;;;;;;;;;;4998724;28;20030;-81
2023/03/02 07:42:07;;;;;;;37.92;22.20;;;;;;;;;;5020761;28;20045;-81
2023/03/02 07:44:34;;;;;;;40.35;23.50;;;;;;;;;;5016022;28;20033;-80
2023/03/02 07:47:00;;;;;;;39.75;23.92;;;;;;;;;;5008975;28;20054;-81
2023/03/02 07:49:26;;;;;;;40.67;23.13;;;;;;;;;;4998391;28;20026;-81
2023/03/02 07:51:52;;;;;;;47.45;25.17;;;;;;;;;;4995511;28;20505;-81
2023/03/02 07:54:18;;;;;;;45.92;24.63;;;;;;;;;;5000039;28;20105;-81
2023/03/02 07:56:44;;;;;;;39.60;22.92;;;;;;;;;;4999327;28;20030;-81
2023/03/02 07:59:11;;;;;;;47.42;25.80;;;;;;;;;;5012119;28;20022;-79
2023/03/02 08:01:37;;;;;;;39.20;24.17;;;;;;;;;;5016539;28;20088;-80
2023/03/02 08:04:03;;;;;;;39.80;22.58;;;;;;;;;;5014008;28;20030;-81
2023/03/02 08:06:29;;;;;;;42.05;24.75;;;;;;;;;;5004249;28;20109;-81
2023/03/02 08:08:56;;;;;;;43.17;25.60;;;;;;;;;;5007861;28;20129;-81
2023/03/02 08:11:22;;;;;;;38.97;24.20;;;;;;;;;;5015686;28;20032;-81
2023/03/02 08:13:48;;;;;;;40.08;24.25;;;;;;;;;;5008442;28;20109;-81
2023/03/02 08:16:14;;;;;;;39.63;23.95;;;;;;;;;;5009924;28;20061;-81
2023/03/02 08:18:41;;;;;;;44.70;25.00;;;;;;;;;;4998805;28;20084;-81
2023/03/02 08:21:11;;;;;;;45.25;25.75;;;;;;;;;;4994136;28;20023;-79
2023/03/02 08:23:36;;;;;;;41.42;25.75;;;;;;;;;;4995388;28;20097;-80
2023/03/02 08:26:02;;;;;;;42.83;26.92;;;;;;;;;;5004721;28;20546;-81
2023/03/02 08:28:28;;;;;;;41.33;25.65;;;;;;;;;;4997663;28;20030;-81
2023/03/02 08:30:55;;;;;;;40.85;25.73;;;;;;;;;;4999213;28;20022;-80
2023/03/02 08:33:21;;;;;;;42.33;25.27;;;;;;;;;;5010694;28;20034;-80
2023/03/02 08:35:57;;;;;;;41.15;25.40;;;;;;;;;;5006020;28;20022;-81
2023/03/02 08:38:24;;;;;;;49.97;26.20;;;;;;;;;;5009666;28;20062;-80
2023/03/02 08:40:51;;;;;;;40.75;24.63;;;;;;;;;;5000667;28;20026;-81
2023/03/02 08:43:17;;;;;;;43.53;26.27;;;;;;;;;;4998859;28;20018;-81
2023/03/02 08:45:43;;;;;;;42.95;25.10;;;;;;;;;;5000489;28;20031;-79
2023/03/02 08:48:09;;;;;;;41.92;25.08;;;;;;;;;;5003513;28;20052;-81
2023/03/02 08:50:35;;;;;;;41.72;25.17;;;;;;;;;;4999638;28;20451;-82
2023/03/02 08:53:01;;;;;;;40.33;25.15;;;;;;;;;;4993745;28;20031;-81
2023/03/02 08:55:27;;;;;;;44.05;25.83;;;;;;;;;;5000776;28;20034;-81
2023/03/02 08:57:53;;;;;;;41.60;25.42;;;;;;;;;;5001668;28;20029;-80
2023/03/02 09:00:19;;;;;;;40.17;25.20;;;;;;;;;;5000818;28;20018;-80
2023/03/02 09:02:45;;;;;;;39.42;25.67;;;;;;;;;;5000905;28;20037;-81
2023/03/02 09:05:11;;;;;;;41.88;25.45;;;;;;;;;;5005462;28;20014;-81
2023/03/02 09:07:37;;;;;;;45.10;25.30;;;;;;;;;;5008342;28;20409;-80
2023/03/02 09:10:03;;;;;;;41.47;24.50;;;;;;;;;;5005996;28;20045;-82
2023/03/02 09:12:29;;;;;;;38.78;25.02;;;;;;;;;;5005146;28;20029;-80
2023/03/02 09:14:55;;;;;;;43.88;25.50;;;;;;;;;;5012216;28;20030;-80
2023/03/02 09:17:21;;;;;;;40.22;24.45;;;;;;;;;;5009783;28;20088;-81
2023/03/02 09:19:47;;;;;;;44.80;26.45;;;;;;;;;;5013124;28;20032;-79
2023/03/02 09:22:13;;;;;;;44.83;26.10;;;;;;;;;;5010993;28;20026;-80
2023/03/02 09:24:39;;;;;;;37.25;24.58;;;;;;;;;;5012852;28;20030;-81
2023/03/02 09:27:05;;;;;;;40.63;24.83;;;;;;;;;;5002264;28;20034;-81
2023/03/02 09:29:31;;;;;;;45.35;25.15;;;;;;;;;;5008162;28;20417;-81
2023/03/02 09:31:57;;;;;;;40.10;25.60;;;;;;;;;;5012115;28;20104;-80
2023/03/02 09:34:23;;;;;;;38.08;25.45;;;;;;;;;;5012339;28;20482;-80
2023/03/02 09:36:49;;;;;;;39.63;23.95;;;;;;;;;;5012022;28;20333;-80
2023/03/02 09:39:17;;;;;;;42.40;23.73;;;;;;;;;;4997107;28;20467;-81
2023/03/02 09:41:59;;;;;;;41.03;24.10;;;;;;;;;;4999426;28;20022;-81
2023/03/02 09:44:39;;;;;;;41.83;25.08;;;;;;;;;;5013132;28;20058;-79
2023/03/02 09:47:13;;;;;;;39.28;23.45;;;;;;;;;;5010423;28;20498;-81
2023/03/02 09:49:54;;;;;;;41.53;23.88;;;;;;;;;;4999330;28;20037;-81
2023/03/02 09:52:39;;;;;;;39.80;24.00;;;;;;;;;;4997817;28;20034;-81
2023/03/02 09:55:27;;;;;;;39.97;24.30;;;;;;;;;;5005967;28;20022;-81
2023/03/02 09:57:54;;;;;;;42.50;24.15;;;;;;;;;;5014966;28;20069;-80
2023/03/02 10:00:27;;;;;;;44.25;23.20;;;;;;;;;;5015909;28;20061;-81
2023/03/02 10:02:55;;;;;;;39.05;24.45;;;;;;;;;;5017184;28;20022;-81
2023/03/02 10:05:23;;;;;;;38.85;24.02;;;;;;;;;;4998714;28;20070;-79
2023/03/02 10:07:50;;;;;;;39.42;24.38;;;;;;;;;;5006880;28;20026;-81
2023/03/02 10:10:25;;;;;;;36.88;24.73;;;;;;;;;;5003985;28;20103;-81
2023/03/02 10:13:00;;;;;;;40.13;24.40;;;;;;;;;;5010434;28;20037;-79
2023/03/02 10:15:39;;;;;;;34.90;22.20;;;;;;;;;;5006684;28;20482;-81
2023/03/02 10:18:13;;;;;;;34.92;22.38;;;;;;;;;;5002710;28;20067;-79
2023/03/02 10:20:39;;;;;;;29.58;19.02;;;;;;;;;;5024255;28;20393;-82
2023/03/02 10:23:15;;;;;;;38.50;22.02;;;;;;;;;;5008794;28;20014;-81
2023/03/02 10:25:48;;;;;;;31.33;20.85;;;;;;;;;;5003615;28;20026;-80
2023/03/02 10:28:19;;;;;;;33.60;21.67;;;;;;;;;;5019050;28;20445;-78
2023/03/02 10:30:46;;;;;;;31.42;20.02;;;;;;;;;;5019760;28;20025;-81
2023/03/02 10:33:14;;;;;;;32.95;19.80;;;;;;;;;;5006797;28;20401;-80
2023/03/02 10:35:45;;;;;;;37.55;22.60;;;;;;;;;;5011037;28;20026;-80
2023/03/02 10:38:13;;;;;;;35.42;21.08;;;;;;;;;;5007897;28;20050;-81
2023/03/02 10:40:51;;;;;;;30.02;19.48;;;;;;;;;;5014876;28;20018;-81
2023/03/02 10:43:36;;;;;;;30.40;19.65;;;;;;;;;;5002682;28;20026;-80
2023/03/02 10:46:03;;;;;;;30.30;19.23;;;;;;;;;;5011386;28;20112;-80
2023/03/02 10:48:30;;;;;;;38.63;22.85;;;;;;;;;;5014880;28;20040;-82
2023/03/02 10:50:57;;;;;;;36.80;22.33;;;;;;;;;;5016919;28;20026;-83
2023/03/02 10:53:24;;;;;;;37.03;20.92;;;;;;;;;;5016754;28;20037;-82
2023/03/02 10:55:51;;;;;;;31.90;20.08;;;;;;;;;;5008671;28;20034;-81
2023/03/02 10:58:26;;;;;;;35.22;22.48;;;;;;;;;;5007888;28;20030;-80
2023/03/02 11:00:59;;;;;;;35.72;20.70;;;;;;;;;;5025205;28;20018;-81
2023/03/02 11:03:26;;;;;;;33.40;19.90;;;;;;;;;;5019524;28;20022;-81
2023/03/02 11:05:52;;;;;;;33.22;19.80;;;;;;;;;;5007889;28;20449;-82
2023/03/02 11:08:19;;;;;;;32.55;18.98;;;;;;;;;;4997193;28;20030;-83
2023/03/02 11:10:56;;;;;;;35.13;20.10;;;;;;;;;;5012625;28;20497;-82
2023/03/02 11:13:29;;;;;;;28.85;19.05;;;;;;;;;;4997954;28;20033;-81
2023/03/02 11:16:00;;;;;;;30.15;18.05;;;;;;;;;;4997711;28;20022;-85
2023/03/02 11:18:35;;;;;;;29.50;18.88;;;;;;;;;;5015652;28;20109;-80
2023/03/02 11:21:04;;;;;;;30.42;18.50;;;;;;;;;;5015529;28;20273;-82
2023/03/02 11:23:39;;;;;;;29.35;20.50;;;;;;;;;;4999351;28;20041;-81
2023/03/02 11:26:09;;;;;;;32.97;20.58;;;;;;;;;;4996006;28;20512;-81
2023/03/02 11:28:35;;;;;;;29.58;19.25;;;;;;;;;;4996382;28;20036;-82
2023/03/02 11:31:02;;;;;;;30.35;19.35;;;;;;;;;;4996381;28;20109;-83
2023/03/02 11:33:35;;;;;;;30.67;19.63;;;;;;;;;;5011999;28;20084;-81
2023/03/02 11:36:27;;;;;;;31.48;19.33;;;;;;;;;;5015822;28;20075;-83
2023/03/02 11:38:54;;;;;;;30.30;18.63;;;;;;;;;;4994516;28;20058;-82
2023/03/02 11:41:28;;;;;;;29.25;18.48;;;;;;;;;;5002700;28;20105;-82
2023/03/02 11:43:55;;;;;;;28.58;17.67;;;;;;;;;;4996444;28;20030;-82
2023/03/02 11:46:26;;;;;;;28.42;16.50;;;;;;;;;;4996392;28;20513;-82
2023/03/02 11:48:54;;;;;;;25.77;16.13;;;;;;;;;;5015415;28;20344;-82
2023/03/02 11:51:23;;;;;;;28.85;15.80;;;;;;;;;;5014467;28;20179;-81
2023/03/02 11:54:05;;;;;;;23.08;15.20;;;;;;;;;;4996762;28;20033;-82
2023/03/02 11:56:34;;;;;;;26.40;16.00;;;;;;;;;;5009011;28;20031;-82
2023/03/02 11:59:05;;;;;;;25.83;15.93;;;;;;;;;;5015515;28;20022;-81
2023/03/02 12:01:33;;;;;;;27.85;15.23;;;;;;;;;;5013905;28;20026;-82
2023/03/02 12:04:09;;;;;;;30.40;17.30;;;;;;;;;;5013245;28;20040;-81
2023/03/02 12:06:42;;;;;;;26.70;16.50;;;;;;;;;;5012711;28;20583;-83
2023/03/02 12:09:10;;;;;;;28.05;16.05;;;;;;;;;;5014670;28;20025;-82
2023/03/02 12:11:39;;;;;;;33.38;16.65;;;;;;;;;;5015203;28;20426;-81
2023/03/02 12:14:24;;;;;;;25.98;16.10;;;;;;;;;;5010625;28;20024;-80
2023/03/02 12:16:50;;;;;;;26.85;16.67;;;;;;;;;;5000345;28;20030;-84
2023/03/02 12:19:16;;;;;;;28.92;17.05;;;;;;;;;;4995246;28;20026;-82
2023/03/02 12:22:04;;;;;;;23.27;15.48;;;;;;;;;;5009002;28;20030;-81
2023/03/02 12:24:35;;;;;;;26.67;16.02;;;;;;;;;;5014695;28;20018;-83
2023/03/02 12:27:04;;;;;;;25.02;16.08;;;;;;;;;;5014549;28;20444;-82
2023/03/02 12:29:40;;;;;;;31.95;17.13;;;;;;;;;;5001037;28;20097;-82
2023/03/02 12:32:10;;;;;;;25.95;17.73;;;;;;;;;;5012293;28;20122;-82
2023/03/02 12:34:38;;;;;;;23.73;15.20;;;;;;;;;;5006575;28;20076;-80
2023/03/02 12:37:04;;;;;;;26.90;14.88;;;;;;;;;;4995385;28;20405;-81
2023/03/02 12:39:38;;;;;;;22.83;14.35;;;;;;;;;;4995654;28;20475;-81
2023/03/02 12:42:25;;;;;;;25.33;15.50;;;;;;;;;;4994693;28;20080;-82
2023/03/02 12:45:01;;;;;;;20.40;13.40;;;;;;;;;;4995936;28;20114;-83
2023/03/02 12:47:28;;;;;;;16.98;11.20;;;;;;;;;;4993587;28;20104;-82
2023/03/02 12:49:58;;;;;;;19.20;11.32;;;;;;;;;;4993672;28;20460;-83
2023/03/02 12:52:24;;;;;;;21.88;11.75;;;;;;;;;;5011286;28;20429;-82
2023/03/02 12:54:58;;;;;;;21.02;11.68;;;;;;;;;;5000671;28;20029;-82
2023/03/02 12:57:24;;;;;;;20.17;12.45;;;;;;;;;;4992887;28;20058;-82
2023/03/02 12:59:52;;;;;;;21.45;12.30;;;;;;;;;;5002040;28;20022;-83
2023/03/02 13:02:18;;;;;;;18.60;11.40;;;;;;;;;;5012888;28;20237;-81
2023/03/02 13:04:44;;;;;;;19.10;11.80;;;;;;;;;;5009805;28;20438;-83
2023/03/02 13:07:18;;;;;;;19.65;12.15;;;;;;;;;;5012758;28;20033;-82
2023/03/02 13:09:44;;;;;;;22.30;12.73;;;;;;;;;;5014515;28;20032;-82
2023/03/02 13:12:13;;;;;;;22.10;12.55;;;;;;;;;;5014172;28;20026;-81
2023/03/02 13:14:40;;;;;;;18.50;11.68;;;;;;;;;;5006249;28;20027;-81
2023/03/02 13:17:06;;;;;;;19.95;11.57;;;;;;;;;;5012720;28;20120;-80
2023/03/02 13:19:32;;;;;;;19.23;11.27;;;;;;;;;;5012540;28;20056;-80
2023/03/02 13:21:59;;;;;;;20.17;11.10;;;;;;;;;;5013462;28;20061;-81
2023/03/02 13:24:28;;;;;;;18.40;10.55;;;;;;;;;;5011133;28;20029;-83
2023/03/02 13:26:55;;;;;;;18.30;10.57;;;;;;;;;;5013582;28;20032;-81
2023/03/02 13:29:25;;;;;;;19.02;10.98;;;;;;;;;;4998904;28;20030;-83
2023/03/02 13:31:51;;;;;;;19.33;11.10;;;;;;;;;;4994443;28;20030;-85
2023/03/02 13:34:24;;;;;;;19.08;11.35;;;;;;;;;;5003851;28;20042;-84
2023/03/02 13:36:50;;;;;;;20.85;11.13;;;;;;;;;;4992565;28;20510;-79
2023/03/02 13:39:21;;;;;;;21.00;12.43;;;;;;;;;;4994430;28;20105;-79
2023/03/02 13:41:53;;;;;;;17.83;10.80;;;;;;;;;;4993754;28;20022;-82
2023/03/02 13:44:23;;;;;;;19.25;12.18;;;;;;;;;;5000970;28;20040;-82
2023/03/02 13:46:49;;;;;;;19.73;11.57;;;;;;;;;;5011900;28;20050;-82
2023/03/02 13:49:25;;;;;;;19.10;12.43;;;;;;;;;;5010795;28;20046;-80
2023/03/02 13:51:56;;;;;;;20.98;12.02;;;;;;;;;;5013840;28;20032;-83
2023/03/02 13:54:25;;;;;;;18.63;11.13;;;;;;;;;;5005527;28;20034;-81
2023/03/02 13:56:52;;;;;;;20.13;12.50;;;;;;;;;;4993595;28;20383;-82
2023/03/02 13:59:19;;;;;;;20.83;11.68;;;;;;;;;;5000964;28;20026;-82
2023/03/02 14:01:45;;;;;;;18.02;11.23;;;;;;;;;;5009728;28;20050;-82
2023/03/02 14:04:12;;;;;;;20.63;11.38;;;;;;;;;;5013141;28;20026;-82
2023/03/02 14:06:38;;;;;;;18.75;12.38;;;;;;;;;;4993462;28;20474;-81
2023/03/02 14:09:04;;;;;;;18.77;12.00;;;;;;;;;;4993894;28;20065;-79
2023/03/02 14:11:33;;;;;;;20.40;11.98;;;;;;;;;;4994209;28;20018;-81
2023/03/02 14:14:01;;;;;;;23.20;13.10;;;;;;;;;;5001398;28;20082;-82
2023/03/02 14:16:28;;;;;;;20.73;12.43;;;;;;;;;;4993302;28;20022;-80
2023/03/02 14:18:57;;;;;;;21.95;12.73;;;;;;;;;;4993978;28;20037;-81
2023/03/02 14:21:24;;;;;;;20.25;11.65;;;;;;;;;;4993465;28;20027;-82
2023/03/02 14:23:51;;;;;;;17.33;11.38;;;;;;;;;;5000667;28;20034;-83
2023/03/02 14:26:20;;;;;;;21.35;12.32;;;;;;;;;;4995660;28;20026;-79
2023/03/02 14:28:46;;;;;;;19.23;12.57;;;;;;;;;;4996456;28;20065;-85
2023/03/02 14:31:12;;;;;;;18.90;11.48;;;;;;;;;;4994983;28;20049;-81
2023/03/02 14:33:38;;;;;;;19.80;12.82;;;;;;;;;;5001605;28;20021;-80
2023/03/02 14:36:05;;;;;;;20.65;12.00;;;;;;;;;;4993430;28;20026;-80
2023/03/02 14:38:31;;;;;;;23.55;12.32;;;;;;;;;;5003488;28;20505;-82
2023/03/02 14:40:57;;;;;;;19.25;12.40;;;;;;;;;;5014957;28;20049;-83
2023/03/02 14:43:24;;;;;;;24.30;12.88;;;;;;;;;;5011287;28;20030;-81
2023/03/02 14:45:51;;;;;;;17.88;11.38;;;;;;;;;;5001241;28;20026;-82
2023/03/02 14:48:17;;;;;;;20.45;12.88;;;;;;;;;;4996083;28;20154;-82